Time,TemperatureF,DewpointF,PressureIn,WindDirection,WindDirectionDegrees,WindSpeedMPH,WindSpeedGustMPH,Humidity,HourlyPrecipIn,Conditions,Clouds,dailyrainin,SoftwareType,DateUTC
2013-03-30 00:06:00,25.1,17.0,29.90,NE,44,0.0,-999.0,71,-99.99,,,0.00,weatherlink.com 1.10,2013-03-30 08:06:00,
2013-03-30 00:20:00,24.4,16.0,29.90,NE,44,0.0,-999.0,71,-99.99,,,0.00,weatherlink.com 1.10,2013-03-30 08:20:00,
2013-03-30 00:35:00,23.0,15.0,29.91,NNE,16,0.0,-999.0,72,-99.99,,,0.00,weatherlink.com 1.10,2013-03-30 08:35:00,
2013-03-30 00:49:00,21.9,15.0,29.91,NNE,16,0.0,-999.0,74,-99.99,,,0.00,weatherlink.com 1.10,2013-03-30 08:49:00,
2013-03-30 01:04:00,21.6,15.0,29.91,NNE,16,0.0,-999.0,75,-99.99,,,0.00,weatherlink.com 1.10,2013-03-30 09:04:00,
2013-03-30 01:20:00,20.9,15.0,29.92,NNE,16,0.0,-999.0,77,-99.99,,,0.00,weatherlink.com 1.10,2013-03-30 09:20:00,
2013-03-30 01:35:00,19.5,13.0,29.93,NNW,348,0.0,-999.0,76,-99.99,,,0.00,weatherlink.com 1.10,2013-03-30 09:35:00,
2013-03-30 01:50:00,18.3,12.0,29.93,NNW,348,0.0,-999.0,77,-99.99,,,0.00,weatherlink.com 1.10,2013-03-30 09:50:00,
2013-03-30 02:06:00,17.6,12.0,29.94,NNW,348,0.0,-999.0,77,-99.99,,,0.00,weatherlink.com 1.10,2013-03-30 10:06:00,
2013-03-30 02:20:00,17.1,11.0,29.94,NNW,348,0.0,-999.0,77,-99.99,,,0.00,weatherlink.com 1.10,2013-03-30 10:20:00,
2013-03-30 02:35:00,16.7,10.0,29.95,NNW,348,0.0,-999.0,76,-99.99,,,0.00,weatherlink.com 1.10,2013-03-30 10:35:00,
2013-03-30 02:50:00,16.3,10.0,29.95,NNW,348,0.0,-999.0,76,-99.99,,,0.00,weatherlink.com 1.10,2013-03-30 10:50:00,
2013-03-30 03:06:00,15.9,10.0,29.96,NNW,348,0.0,-999.0,77,-99.99,,,0.00,weatherlink.com 1.10,2013-03-30 11:06:00,
2013-03-30 03:20:00,15.5,10.0,29.96,NNW,348,0.0,-999.0,77,-99.99,,,0.00,weatherlink.com 1.10,2013-03-30 11:20:00,
2013-03-30 03:35:00,14.6,8.0,29.97,NNW,348,0.0,-999.0,76,-99.99,,,0.00,weatherlink.com 1.10,2013-03-30 11:35:00,
2013-03-30 03:50:00,14.1,8.0,29.98,NNW,348,0.0,-999.0,77,-99.99,,,0.00,weatherlink.com 1.10,2013-03-30 11:50:00,
2013-03-30 04:06:00,13.7,8.0,29.98,NNW,348,0.0,-999.0,77,-99.99,,,0.00,weatherlink.com 1.10,2013-03-30 12:06:00,
2013-03-30 04:20:00,13.5,8.0,29.99,NNW,348,0.0,-999.0,78,-99.99,,,0.00,weatherlink.com 1.10,2013-03-30 12:20:00,
2013-03-30 04:35:00,12.8,7.0,30.00,NNW,348,0.0,-999.0,77,-99.99,,,0.00,weatherlink.com 1.10,2013-03-30 12:35:00,
2013-03-30 04:50:00,11.6,6.0,30.00,NNW,348,0.0,-999.0,78,-99.99,,,0.00,weatherlink.com 1.10,2013-03-30 12:50:00,
2013-03-30 05:06:00,11.0,6.0,30.01,NNW,348,0.0,-999.0,81,-99.99,,,0.00,weatherlink.com 1.10,2013-03-30 13:06:00,
2013-03-30 05:20:00,10.8,6.0,30.02,NNW,348,0.0,-999.0,80,-99.99,,,0.00,weatherlink.com 1.10,2013-03-30 13:20:00,
2013-03-30 05:35:00,10.1,5.0,30.02,NNW,348,0.0,-999.0,80,-99.99,,,0.00,weatherlink.com 1.10,2013-03-30 13:35:00,
2013-03-30 05:50:00,10.0,6.0,30.03,NNW,348,0.0,-999.0,82,-99.99,,,0.00,weatherlink.com 1.10,2013-03-30 13:50:00,
2013-03-30 06:20:00,9.1,5.0,30.04,NNW,348,0.0,-999.0,82,-99.99,,,0.00,weatherlink.com 1.10,2013-03-30 14:20:00,
2013-03-30 06:35:00,8.6,5.0,30.04,NNW,348,0.0,-999.0,83,-99.99,,,0.00,weatherlink.com 1.10,2013-03-30 14:35:00,
2013-03-30 06:50:00,8.0,4.0,30.05,NNW,348,0.0,-999.0,83,-99.99,,,0.00,weatherlink.com 1.10,2013-03-30 14:50:00,
2013-03-30 07:20:00,6.5,3.0,30.07,NNW,348,0.0,-999.0,84,-99.99,,,0.00,weatherlink.com 1.10,2013-03-30 15:20:00,
2013-03-30 07:35:00,6.2,3.0,30.07,NNW,348,0.0,-999.0,85,-99.99,,,0.00,weatherlink.com 1.10,2013-03-30 15:35:00,
2013-03-30 07:50:00,6.2,3.0,30.07,NNW,348,0.0,-999.0,86,-99.99,,,0.00,weatherlink.com 1.10,2013-03-30 15:50:00,
2013-03-30 08:06:00,7.0,4.0,30.08,NNW,348,0.0,-999.0,86,-99.99,,,0.00,weatherlink.com 1.10,2013-03-30 16:06:00,
2013-03-30 08:20:00,7.7,4.0,30.09,NNW,348,0.0,-999.0,85,-99.99,,,0.00,weatherlink.com 1.10,2013-03-30 16:20:00,
2013-03-30 08:35:00,9.8,6.0,30.09,NNW,348,0.0,-999.0,83,-99.99,,,0.00,weatherlink.com 1.10,2013-03-30 16:35:00,
2013-03-30 08:50:00,11.1,6.0,30.09,NNW,348,0.0,-999.0,79,-99.99,,,0.00,weatherlink.com 1.10,2013-03-30 16:50:00,
2013-03-30 09:06:00,12.5,7.0,30.10,NNW,348,0.0,-999.0,78,-99.99,,,0.00,weatherlink.com 1.10,2013-03-30 17:06:00,
2013-03-30 09:20:00,12.5,6.0,30.11,NNW,348,0.0,-999.0,75,-99.99,,,0.00,weatherlink.com 1.10,2013-03-30 17:20:00,
2013-03-30 09:35:00,12.9,6.0,30.11,NNW,348,0.0,-999.0,74,-99.99,,,0.00,weatherlink.com 1.10,2013-03-30 17:35:00,
2013-03-30 09:50:00,14.1,7.0,30.11,NNW,348,0.0,-999.0,73,-99.99,,,0.00,weatherlink.com 1.10,2013-03-30 17:50:00,
2013-03-30 10:06:00,14.5,7.0,30.12,NNW,348,0.0,-999.0,73,-99.99,,,0.00,weatherlink.com 1.10,2013-03-30 18:06:00,
2013-03-30 10:20:00,15.1,8.0,30.12,NNW,348,0.0,-999.0,72,-99.99,,,0.00,weatherlink.com 1.10,2013-03-30 18:20:00,
2013-03-30 10:35:00,15.3,7.0,30.13,NNW,348,0.0,-999.0,71,-99.99,,,0.00,weatherlink.com 1.10,2013-03-30 18:35:00,
2013-03-30 10:50:00,16.0,8.0,30.13,NNW,348,0.0,-999.0,70,-99.99,,,0.00,weatherlink.com 1.10,2013-03-30 18:50:00,
2013-03-30 11:06:00,16.6,8.0,30.14,NNW,348,0.0,-999.0,69,-99.99,,,0.00,weatherlink.com 1.10,2013-03-30 19:06:00,
2013-03-30 11:20:00,17.0,8.0,30.14,NNW,348,0.0,-999.0,68,-99.99,,,0.00,weatherlink.com 1.10,2013-03-30 19:20:00,
2013-03-30 11:35:00,17.3,8.0,30.14,NNW,348,0.0,-999.0,68,-99.99,,,0.00,weatherlink.com 1.10,2013-03-30 19:35:00,
2013-03-30 11:50:00,17.9,9.0,30.14,NNW,348,0.0,-999.0,67,-99.99,,,0.00,weatherlink.com 1.10,2013-03-30 19:50:00,
2013-03-30 12:06:00,18.9,10.0,30.14,NNW,348,0.0,-999.0,67,-99.99,,,0.00,weatherlink.com 1.10,2013-03-30 20:06:00,
2013-03-30 12:20:00,19.8,10.0,30.15,NNW,348,0.0,-999.0,66,-99.99,,,0.00,weatherlink.com 1.10,2013-03-30 20:20:00,
2013-03-30 12:35:00,20.7,10.0,30.15,NNW,348,0.0,-999.0,64,-99.99,,,0.00,weatherlink.com 1.10,2013-03-30 20:35:00,
2013-03-30 12:50:00,21.8,11.0,30.15,NNW,348,0.0,-999.0,63,-99.99,,,0.00,weatherlink.com 1.10,2013-03-30 20:50:00,
2013-03-30 13:06:00,22.9,11.0,30.15,NNW,348,0.0,-999.0,60,-99.99,,,0.00,weatherlink.com 1.10,2013-03-30 21:06:00,
2013-03-30 13:20:00,23.7,11.0,30.15,NNW,348,0.0,-999.0,58,-99.99,,,0.00,weatherlink.com 1.10,2013-03-30 21:20:00,
2013-03-30 13:35:00,24.1,11.0,30.15,NNW,348,0.0,-999.0,58,-99.99,,,0.00,weatherlink.com 1.10,2013-03-30 21:35:00,
2013-03-30 13:50:00,24.5,11.0,30.15,NNW,348,0.0,-999.0,56,-99.99,,,0.00,weatherlink.com 1.10,2013-03-30 21:50:00,
2013-03-30 14:20:00,25.5,12.0,30.15,NNW,348,0.0,-999.0,57,-99.99,,,0.00,weatherlink.com 1.10,2013-03-30 22:20:00,
2013-03-30 14:35:00,26.2,12.0,30.15,NNW,348,0.0,-999.0,55,-99.99,,,0.00,weatherlink.com 1.10,2013-03-30 22:35:00,
2013-03-30 14:50:00,26.8,12.0,30.15,NNW,348,0.0,-999.0,55,-99.99,,,0.00,weatherlink.com 1.10,2013-03-30 22:50:00,
2013-03-30 15:20:00,29.0,14.0,30.15,NNW,348,0.0,-999.0,53,-99.99,,,0.00,weatherlink.com 1.10,2013-03-30 23:20:00,
2013-03-30 15:35:00,30.0,15.0,30.15,NNW,348,0.0,-999.0,53,-99.99,,,0.00,weatherlink.com 1.10,2013-03-30 23:35:00,
2013-03-30 15:50:00,31.1,15.0,30.15,NNW,348,0.0,-999.0,51,-99.99,,,0.00,weatherlink.com 1.10,2013-03-30 23:50:00,
2013-03-30 16:06:00,32.3,17.0,30.15,NNW,348,0.0,-999.0,53,-99.99,,,0.00,weatherlink.com 1.10,2013-03-31 00:06:00,
2013-03-30 16:20:00,33.1,16.0,30.15,NNW,348,0.0,-999.0,50,-99.99,,,0.00,weatherlink.com 1.10,2013-03-31 00:20:00,
2013-03-30 16:35:00,33.7,17.0,30.15,NNW,348,0.0,-999.0,50,-99.99,,,0.00,weatherlink.com 1.10,2013-03-31 00:35:00,
2013-03-30 16:50:00,34.3,17.0,30.15,NNW,348,0.0,-999.0,50,-99.99,,,0.00,weatherlink.com 1.10,2013-03-31 00:50:00,
2013-03-30 17:06:00,35.0,18.0,30.15,NNW,348,0.0,-999.0,51,-99.99,,,0.00,weatherlink.com 1.10,2013-03-31 01:06:00,
2013-03-30 17:20:00,35.6,17.0,30.15,NNW,348,0.0,-999.0,47,-99.99,,,0.00,weatherlink.com 1.10,2013-03-31 01:20:00,
2013-03-30 17:35:00,36.1,18.0,30.15,NNW,348,0.0,-999.0,48,-99.99,,,0.00,weatherlink.com 1.10,2013-03-31 01:35:00,
2013-03-30 17:50:00,36.3,19.0,30.15,NNW,348,0.0,-999.0,49,-99.99,,,0.00,weatherlink.com 1.10,2013-03-31 01:50:00,
2013-03-30 18:06:00,37.0,18.0,30.14,NNW,348,0.0,-999.0,46,-99.99,,,0.00,weatherlink.com 1.10,2013-03-31 02:06:00,
2013-03-30 18:20:00,37.6,19.0,30.15,NNW,348,0.0,-999.0,47,-99.99,,,0.00,weatherlink.com 1.10,2013-03-31 02:20:00,
2013-03-30 18:35:00,37.7,19.0,30.15,NNW,348,0.0,-999.0,47,-99.99,,,0.00,weatherlink.com 1.10,2013-03-31 02:35:00,
2013-03-30 18:50:00,37.8,19.0,30.15,NNW,348,0.0,-999.0,46,-99.99,,,0.00,weatherlink.com 1.10,2013-03-31 02:50:00,
2013-03-30 19:06:00,37.6,19.0,30.15,NNW,348,0.0,-999.0,47,-99.99,,,0.00,weatherlink.com 1.10,2013-03-31 03:06:00,
2013-03-30 19:20:00,37.4,19.0,30.15,NNW,348,0.0,-999.0,47,-99.99,,,0.00,weatherlink.com 1.10,2013-03-31 03:20:00,
2013-03-30 19:35:00,36.1,19.0,30.15,NNW,348,0.0,-999.0,50,-99.99,,,0.00,weatherlink.com 1.10,2013-03-31 03:35:00,
2013-03-30 19:50:00,35.3,18.0,30.15,NNW,348,0.0,-999.0,50,-99.99,,,0.00,weatherlink.com 1.10,2013-03-31 03:50:00,
2013-03-30 20:06:00,34.4,20.0,30.15,NNW,348,0.0,-999.0,56,-99.99,,,0.00,weatherlink.com 1.10,2013-03-31 04:06:00,
2013-03-30 20:20:00,32.8,19.0,30.16,NNW,348,0.0,-999.0,57,-99.99,,,0.00,weatherlink.com 1.10,2013-03-31 04:20:00,
2013-03-30 20:35:00,31.4,18.0,30.16,NNW,348,0.0,-999.0,57,-99.99,,,0.00,weatherlink.com 1.10,2013-03-31 04:35:00,
2013-03-30 20:50:00,30.4,17.0,30.16,NNW,348,0.0,-999.0,58,-99.99,,,0.00,weatherlink.com 1.10,2013-03-31 04:50:00,
2013-03-30 21:06:00,29.9,18.0,30.17,NNW,348,0.0,-999.0,61,-99.99,,,0.00,weatherlink.com 1.10,2013-03-31 05:06:00,
2013-03-30 21:20:00,29.4,19.0,30.17,NNW,348,0.0,-999.0,65,-99.99,,,0.00,weatherlink.com 1.10,2013-03-31 05:20:00,
2013-03-30 21:35:00,28.4,18.0,30.17,NNW,348,0.0,-999.0,66,-99.99,,,0.00,weatherlink.com 1.10,2013-03-31 05:35:00,
2013-03-30 21:50:00,28.2,18.0,30.18,NNW,348,0.0,-999.0,66,-99.99,,,0.00,weatherlink.com 1.10,2013-03-31 05:50:00,
2013-03-30 22:06:00,27.8,18.0,30.18,NNW,348,0.0,-999.0,68,-99.99,,,0.00,weatherlink.com 1.10,2013-03-31 06:06:00,
2013-03-30 22:20:00,27.4,19.0,30.18,NNW,348,0.0,-999.0,70,-99.99,,,0.00,weatherlink.com 1.10,2013-03-31 06:20:00,
2013-03-30 22:35:00,26.9,19.0,30.18,NNW,348,0.0,-999.0,71,-99.99,,,0.00,weatherlink.com 1.10,2013-03-31 06:35:00,
2013-03-30 22:50:00,27.0,18.0,30.18,NNW,348,0.0,-999.0,69,-99.99,,,0.00,weatherlink.com 1.10,2013-03-31 06:50:00,
2013-03-30 23:06:00,26.5,18.0,30.18,NNW,348,0.0,-999.0,70,-99.99,,,0.00,weatherlink.com 1.10,2013-03-31 07:06:00,
2013-03-30 23:20:00,26.2,18.0,30.18,NNW,348,0.0,-999.0,71,-99.99,,,0.00,weatherlink.com 1.10,2013-03-31 07:20:00,
2013-03-30 23:35:00,26.9,19.0,30.18,NNW,348,0.0,-999.0,71,-99.99,,,0.00,weatherlink.com 1.10,2013-03-31 07:35:00,
2013-03-30 23:50:00,27.3,19.0,30.18,NNW,348,0.0,-999.0,72,-99.99,,,0.00,weatherlink.com 1.10,2013-03-31 07:50:00,